| time (UTC) | temp F | wind direction | speed knots | gust knots | rain 1hr in | rain 24hr in | rain mn in | humidity % | barometer mb |
| 20260508064542 | 59 | 248 | 0.0 | 0.0 | 0.00 | 0.00 | 0.00 | 17 | 1005.6 |
| 20260508063029 | 58 | 248 | 0.0 | 0.0 | 0.00 | 0.00 | 0.00 | 18 | 1005.5 |
| 20260508061531 | 58 | 248 | 0.0 | 0.0 | 0.00 | 0.00 | 0.00 | 18 | 1006.1 |
| 20260508060025 | 58 | 248 | 0.0 | 0.0 | 0.00 | 0.00 | 0.00 | 17 | 1006.1 |
| 20260508054538 | 58 | 248 | 0.0 | 0.0 | 0.00 | 0.00 | 0.00 | 17 | 1006.0 |
| 20260508053024 | 59 | 248 | 0.0 | 0.0 | 0.00 | 0.00 | 0.00 | 16 | 1006.0 |
| 20260508051523 | 58 | 248 | 0.0 | 0.0 | 0.00 | 0.00 | 0.00 | 17 | 1006.3 |
| 20260508050023 | 59 | 248 | 0.0 | 0.0 | 0.00 | 0.00 | 0.00 | 16 | 1005.8 |
| 20260508044523 | 59 | 248 | 0.0 | 0.0 | 0.00 | 0.00 | 0.00 | 15 | 1006.0 |
| 20260508043022 | 60 | 248 | 0.0 | 0.0 | 0.00 | 0.00 | 0.00 | 15 | 1005.7 |
| 20260508041522 | 60 | 248 | 0.0 | 0.0 | 0.00 | 0.00 | 0.00 | 14 | 1006.5 |
| 20260508040037 | 61 | 248 | 0.0 | 0.0 | 0.00 | 0.00 | 0.00 | 13 | 1006.1 |
| 20260508034529 | 62 | 248 | 0.0 | 0.0 | 0.00 | 0.00 | 0.00 | 12 | 1005.9 |
| 20260508033020 | 63 | 248 | 0.0 | 0.0 | 0.00 | 0.00 | 0.00 | 11 | 1005.1 |
| 20260508031521 | 65 | 248 | 0.0 | 0.0 | 0.00 | 0.00 | 0.00 | 11 | 1006.1 |
| 20260508030022 | 65 | 248 | 0.0 | 0.0 | 0.00 | 0.00 | 0.00 | 10 | 1006.0 |
| 20260508024524 | 67 | 248 | 0.0 | 0.0 | 0.00 | 0.00 | 0.00 | 9 | 1005.5 |
| 20260508023018 | 68 | 248 | 0.0 | 0.0 | 0.00 | 0.00 | 0.00 | 9 | 1004.8 |
| 20260508021519 | 69 | 248 | 0.0 | 0.0 | 0.00 | 0.00 | 0.00 | 8 | 1005.5 |
| 20260508020017 | 71 | 248 | 0.0 | 0.0 | 0.00 | 0.00 | 0.00 | 8 | 1004.9 |
| 20260508014517 | 73 | 248 | 0.0 | 0.0 | 0.00 | 0.00 | 0.00 | 7 | 1004.8 |
| 20260508013016 | 74 | 237 | 0.0 | 0.0 | 0.00 | 0.00 | 0.00 | 7 | 1004.1 |
| 20260508011516 | 74 | 186 | 0.0 | 0.0 | 0.00 | 0.00 | 0.00 | 8 | 1004.9 |
| 20260508010016 | 75 | 186 | 0.0 | 0.0 | 0.00 | 0.00 | 0.00 | 9 | 1004.4 |
| 20260508004510 | 76 | 186 | 0.0 | 0.0 | 0.00 | 0.00 | 0.00 | 10 | 1004.4 |
| 20260508003007 | 75 | 146 | 0.0 | 0.0 | 0.00 | 0.00 | 0.00 | 10 | 1004.4 |
| 20260508001506 | 75 | 146 | 0.0 | 0.0 | 0.00 | 0.00 | 0.00 | 10 | 1004.6 |
| 20260507234601 | 76 | 124 | 0.0 | 0.0 | 0.00 | 0.00 | 0.00 | 10 | 1004.8 |
| 20260507233111 | 75 | 120 | 0.0 | 0.0 | 0.00 | 0.00 | 0.00 | 10 | 1004.8 |
| 20260507231550 | 74 | 115 | 0.0 | 0.0 | 0.00 | 0.00 | 0.00 | 10 | 1004.7 |
| 20260507230051 | 75 | 139 | 0.0 | 0.0 | 0.00 | 0.00 | 0.00 | 10 | 1004.8 |
| 20260507224544 | 75 | 125 | 0.0 | 0.0 | 0.00 | 0.00 | 0.00 | 11 | 1005.2 |
| 20260507223055 | 75 | 124 | 0.0 | 0.0 | 0.00 | 0.00 | 0.00 | 11 | 1005.4 |
| 20260507221543 | 75 | 159 | 0.0 | 0.0 | 0.00 | 0.00 | 0.00 | 12 | 1005.3 |
| 20260507220041 | 74 | 169 | 0.0 | 0.0 | 0.00 | 0.00 | 0.00 | 12 | 1005.7 |
| 20260507214542 | 74 | 165 | 0.0 | 0.0 | 0.00 | 0.00 | 0.00 | 13 | 1005.9 |
| 20260507213043 | 75 | 169 | 0.0 | 0.0 | 0.00 | 0.00 | 0.00 | 13 | 1006.2 |
| 20260507211546 | 75 | 183 | 0.0 | 0.0 | 0.00 | 0.00 | 0.00 | 13 | 1006.6 |
| 20260507210043 | 74 | 143 | 0.0 | 0.0 | 0.00 | 0.00 | 0.00 | 13 | 1006.9 |
| 20260507204531 | 74 | 114 | 0.0 | 0.0 | 0.00 | 0.00 | 0.00 | 14 | 1007.6 |
| 20260507203026 | 73 | 92 | 0.0 | 0.0 | 0.00 | 0.00 | 0.00 | 15 | 1008.0 |
| 20260507201521 | 72 | 89 | 0.0 | 0.0 | 0.00 | 0.00 | 0.00 | 16 | 1008.2 |
| 20260507200018 | 70 | 64 | 0.0 | 0.0 | 0.00 | 0.00 | 0.00 | 18 | 1008.0 |
| 20260507194530 | 71 | 63 | 0.0 | 0.0 | 0.00 | 0.00 | 0.00 | 17 | 1008.8 |
| 20260507193015 | 69 | 63 | 0.0 | 0.0 | 0.00 | 0.00 | 0.00 | 18 | 1009.6 |
| 20260507191512 | 68 | 59 | 0.0 | 0.0 | 0.00 | 0.00 | 0.00 | 20 | 1009.5 |
| 20260507190015 | 67 | 59 | 0.0 | 0.0 | 0.00 | 0.00 | 0.00 | 21 | 1009.7 |
| 20260507184510 | 68 | 20 | 0.0 | 0.0 | 0.00 | 0.00 | 0.00 | 20 | 1010.2 |
| 20260507183011 | 67 | 20 | 0.0 | 0.0 | 0.00 | 0.00 | 0.00 | 20 | 1010.6 |
| 20260507181506 | 65 | 16 | 0.0 | 0.0 | 0.00 | 0.00 | 0.00 | 22 | 1011.0 |
| 20260507180005 | 64 | 0 | 0.0 | 0.0 | 0.00 | 0.00 | 0.00 | 24 | 1010.8 |
| 20260507174508 | 65 | 351 | 0.0 | 0.0 | 0.00 | 0.00 | 0.00 | 24 | 1011.4 |
| 20260507173118 | 63 | 351 | 0.0 | 0.0 | 0.00 | 0.00 | 0.00 | 27 | 1011.8 |
| 20260507171557 | 62 | 350 | 0.0 | 0.0 | 0.00 | 0.00 | 0.00 | 28 | 1011.9 |
| 20260507170056 | 61 | 350 | 0.0 | 0.0 | 0.00 | 0.00 | 0.00 | 31 | 1012.2 |
| 20260507164611 | 61 | 352 | 0.0 | 0.0 | 0.00 | 0.00 | 0.00 | 36 | 1012.8 |
| 20260507163051 | 58 | 352 | 0.0 | 0.0 | 0.00 | 0.00 | 0.00 | 38 | 1013.4 |
| 20260507161552 | 57 | 1 | 0.0 | 0.0 | 0.00 | 0.00 | 0.00 | 38 | 1013.2 |
| 20260507160040 | 56 | 1 | 0.0 | 0.0 | 0.00 | 0.00 | 0.00 | 41 | 1013.8 |
| 20260507154537 | 55 | 2 | 0.0 | 0.0 | 0.00 | 0.00 | 0.00 | 46 | 1014.3 |
| 20260507153040 | 53 | 2 | 0.0 | 0.0 | 0.00 | 0.00 | 0.00 | 49 | 1014.8 |
| 20260507151533 | 51 | 1 | 0.0 | 0.0 | 0.00 | 0.00 | 0.00 | 52 | 1014.4 |
| 20260507150033 | 49 | 359 | 0.0 | 0.0 | 0.00 | 0.00 | 0.00 | 57 | 1014.8 |
| 20260507144534 | 47 | 338 | 0.0 | 0.0 | 0.00 | 0.00 | 0.00 | 61 | 1015.2 |
| 20260507143028 | 46 | 1 | 0.0 | 0.0 | 0.00 | 0.00 | 0.00 | 64 | 1015.5 |
| 20260507141526 | 45 | 347 | 0.9 | 0.0 | 0.00 | 0.00 | 0.00 | 66 | 1015.3 |
| 20260507140025 | 44 | 359 | 0.0 | 0.0 | 0.00 | 0.00 | 0.00 | 68 | 1015.2 |
| 20260507134525 | 43 | 325 | 0.9 | 0.0 | 0.00 | 0.00 | 0.00 | 69 | 1015.6 |
| 20260507133027 | 43 | 359 | 0.0 | 0.0 | 0.00 | 0.00 | 0.00 | 71 | 1015.3 |
| 20260507131524 | 42 | 349 | 0.0 | 0.0 | 0.00 | 0.00 | 0.00 | 72 | 1014.9 |
| 20260507130022 | 41 | 359 | 0.9 | 0.0 | 0.00 | 0.00 | 0.00 | 72 | 1015.0 |
| 20260507124530 | 41 | 1 | 0.0 | 0.0 | 0.00 | 0.00 | 0.00 | 73 | 1015.1 |
| 20260507123023 | 41 | 6 | 1.7 | 0.0 | 0.00 | 0.00 | 0.00 | 73 | 1015.0 |
| 20260507121519 | 40 | 1 | 0.9 | 0.0 | 0.00 | 0.00 | 0.00 | 72 | 1015.5 |
| 20260507120017 | 40 | 359 | 0.0 | 0.0 | 0.00 | 0.00 | 0.00 | 71 | 1015.4 |
| 20260507114516 | 41 | 359 | 0.0 | 0.0 | 0.00 | 0.00 | 0.00 | 70 | 1015.5 |
| 20260507113034 | 41 | 359 | 0.0 | 0.0 | 0.00 | 0.00 | 0.00 | 67 | 1015.2 |
| 20260507111511 | 42 | 359 | 0.0 | 0.0 | 0.00 | 0.00 | 0.00 | 66 | 1014.4 |
| 20260507110015 | 42 | 0 | 0.0 | 0.0 | 0.00 | 0.00 | 0.00 | 65 | 1014.4 |
| 20260507104508 | 42 | 359 | 0.0 | 0.0 | 0.00 | 0.00 | 0.00 | 65 | 1014.1 |
| 20260507103008 | 42 | 359 | 0.0 | 0.0 | 0.00 | 0.00 | 0.00 | 65 | 1014.1 |
| 20260507101514 | 42 | 359 | 0.0 | 0.0 | 0.00 | 0.00 | 0.00 | 65 | 1013.9 |
| 20260507100005 | 42 | 359 | 0.0 | 0.0 | 0.00 | 0.00 | 0.00 | 64 | 1014.0 |
| 20260507094504 | 42 | 0 | 0.0 | 0.0 | 0.00 | 0.00 | 0.00 | 62 | 1013.9 |
| 20260507093002 | 43 | 1 | 0.0 | 0.0 | 0.00 | 0.00 | 0.00 | 59 | 1014.1 |
| 20260507091635 | 43 | 1 | 0.0 | 0.0 | 0.00 | 0.00 | 0.00 | 47 | 1013.4 |
| 20260507090056 | 43 | 1 | 0.0 | 0.0 | 0.00 | 0.00 | 0.00 | 43 | 1013.0 |
| 20260507084604 | 45 | 1 | 0.0 | 0.0 | 0.00 | 0.00 | 0.00 | 38 | 1012.9 |
| 20260507083051 | 45 | 1 | 0.0 | 0.0 | 0.00 | 0.00 | 0.00 | 36 | 1012.6 |
| 20260507081557 | 45 | 1 | 0.0 | 0.0 | 0.00 | 0.00 | 0.00 | 35 | 1012.6 |
| 20260507080049 | 46 | 1 | 0.0 | 0.0 | 0.00 | 0.00 | 0.00 | 34 | 1012.6 |
| 20260507074553 | 45 | 276 | 0.0 | 0.0 | 0.00 | 0.00 | 0.00 | 36 | 1012.3 |
| 20260507073046 | 46 | 276 | 0.0 | 0.0 | 0.00 | 0.00 | 0.00 | 35 | 1012.2 |
| 20260507071544 | 46 | 276 | 0.0 | 0.0 | 0.00 | 0.00 | 0.00 | 36 | 1012.1 |
| 20260507070044 | 48 | 276 | 0.0 | 0.0 | 0.00 | 0.00 | 0.00 | 34 | 1011.8 |